BAW985 EGPH-EGKK
Flight info
| Callsign | BAW985 |
|---|---|
| Flight time | N/A |
| Altitude | 31000 |
| Route | GOSAM1D GOSAM P600 FENIK L612 NAVSO DCT ADZOP DCT EGTOC DCT KEPAD L151 DISIT DISIT1G |
| Aircraft | A320/M-SDE1FGHILORVWXY/L |
Departure
| Time | 2026-04-21 21:48 |
|---|---|
| Airport | Edinburgh Airport (EGPH) |
Arrival
| Time | N/A |
|---|---|
| Airport | London Gatwick Airport (EGKK) |
| Time | Latitude | Longitude | Altitude | Speed | Heading |
|---|---|---|---|---|---|
| 2026-04-21 21:14 | 55.94859 | -3.36609 | 105 ft | 3 kts | 144° |
| 2026-04-21 21:35 | 55.94862 | -3.36611 | 106 ft | 5 kts | 144° |
| 2026-04-21 21:35 | 55.94883 | -3.36639 | 105 ft | 4 kts | 141° |
| 2026-04-21 21:36 | 55.94902 | -3.36671 | 105 ft | 4 kts | 127° |
| 2026-04-21 21:36 | 55.94911 | -3.36708 | 105 ft | 7 kts | 70° |
| 2026-04-21 21:36 | 55.94910 | -3.36716 | 105 ft | 26 kts | 59° |
| 2026-04-21 21:41 | 55.94911 | -3.36713 | 106 ft | 3 kts | 61° |
| 2026-04-21 21:41 | 55.94921 | -3.36677 | 106 ft | 3 kts | 62° |
| 2026-04-21 21:41 | 55.94941 | -3.36612 | 107 ft | 0 kts | 60° |
| 2026-04-21 21:42 | 55.94959 | -3.36564 | 106 ft | 2 kts | 46° |
| 2026-04-21 21:42 | 55.94963 | -3.36557 | 106 ft | 0 kts | 41° |
| 2026-04-21 21:42 | 55.94969 | -3.36549 | 106 ft | 5 kts | 42° |
| 2026-04-21 21:42 | 55.94985 | -3.36504 | 106 ft | 4 kts | 59° |
| 2026-04-21 21:43 | 55.95018 | -3.36415 | 107 ft | 13 kts | 40° |
| 2026-04-21 21:43 | 55.95053 | -3.36509 | 108 ft | 16 kts | 246° |
| 2026-04-21 21:43 | 55.94980 | -3.36737 | 107 ft | 26 kts | 238° |
| 2026-04-21 21:43 | 55.94885 | -3.37015 | 104 ft | 24 kts | 239° |
| 2026-04-21 21:44 | 55.94799 | -3.37271 | 105 ft | 28 kts | 238° |
| 2026-04-21 21:44 | 55.94722 | -3.37494 | 110 ft | 18 kts | 237° |
| 2026-04-21 21:44 | 55.94643 | -3.37729 | 113 ft | 27 kts | 239° |
| 2026-04-21 21:44 | 55.94538 | -3.38034 | 112 ft | 31 kts | 239° |
| 2026-04-21 21:45 | 55.94446 | -3.38310 | 113 ft | 26 kts | 240° |
| 2026-04-21 21:45 | 55.94361 | -3.38560 | 114 ft | 18 kts | 238° |
| 2026-04-21 21:45 | 55.94288 | -3.38771 | 116 ft | 17 kts | 237° |
| 2026-04-21 21:45 | 55.94286 | -3.38854 | 120 ft | 2 kts | 297° |
| 2026-04-21 21:46 | 55.94326 | -3.38907 | 118 ft | 13 kts | 327° |
| 2026-04-21 21:46 | 55.94397 | -3.38968 | 114 ft | 0 kts | 333° |
| 2026-04-21 21:46 | 55.94405 | -3.38973 | 115 ft | 2 kts | 354° |
| 2026-04-21 21:46 | 55.94425 | -3.38934 | 116 ft | 0 kts | 59° |
| 2026-04-21 21:47 | 55.94439 | -3.38895 | 116 ft | 22 kts | 54° |
| 2026-04-21 21:47 | 55.94644 | -3.38345 | 113 ft | 84 kts | 59° |
| 2026-04-21 21:47 | 55.95025 | -3.37184 | 108 ft | 135 kts | 57° |
| 2026-04-21 21:47 | 55.95526 | -3.35623 | 488 ft | 150 kts | 64° |
| 2026-04-21 21:48 | 55.96101 | -3.34022 | 1087 ft | 164 kts | 46° |
| 2026-04-21 21:48 | 55.97016 | -3.32577 | 1497 ft | 187 kts | 43° |
| 2026-04-21 21:48 | 55.98060 | -3.30952 | 1960 ft | 210 kts | 43° |
| 2026-04-21 21:48 | 55.99219 | -3.29143 | 2590 ft | 230 kts | 41° |
| 2026-04-21 21:49 | 56.00286 | -3.28117 | 3211 ft | 244 kts | 17° |
| 2026-04-21 21:49 | 56.01374 | -3.28027 | 3810 ft | 256 kts | 354° |
| 2026-04-21 21:49 | 56.02997 | -3.29474 | 4751 ft | 273 kts | 318° |
| 2026-04-21 21:50 | 56.03947 | -3.32399 | 5614 ft | 286 kts | 285° |
| 2026-04-21 21:50 | 56.03983 | -3.35952 | 5924 ft | 289 kts | 257° |
| 2026-04-21 21:50 | 56.03359 | -3.39371 | 6646 ft | 290 kts | 245° |
| 2026-04-21 21:50 | 56.02560 | -3.42697 | 7632 ft | 292 kts | 244° |
| 2026-04-21 21:51 | 56.02551 | -3.42735 | 7641 ft | 292 kts | 244° |
| 2026-04-21 21:51 | 56.02385 | -3.43427 | 7828 ft | 293 kts | 245° |
| 2026-04-21 21:52 | 56.01622 | -3.46821 | 8779 ft | 297 kts | 248° |
| 2026-04-21 21:52 | 56.00945 | -3.50276 | 9703 ft | 301 kts | 250° |
| 2026-04-21 21:52 | 56.00331 | -3.53871 | 10605 ft | 305 kts | 252° |
| 2026-04-21 21:52 | 55.99745 | -3.57655 | 11015 ft | 328 kts | 253° |
| 2026-04-21 21:53 | 55.99150 | -3.61745 | 11320 ft | 353 kts | 254° |
| 2026-04-21 21:53 | 55.98539 | -3.66080 | 12020 ft | 365 kts | 255° |
| 2026-04-21 21:53 | 55.98395 | -3.67114 | 12209 ft | 366 kts | 255° |
| 2026-04-21 21:54 | 55.97990 | -3.70012 | 12821 ft | 370 kts | 255° |
| 2026-04-21 21:54 | 55.97365 | -3.74476 | 13879 ft | 375 kts | 255° |
| 2026-04-21 21:54 | 55.96866 | -3.78015 | 14712 ft | 378 kts | 254° |
| 2026-04-21 21:55 | 55.96213 | -3.82587 | 15744 ft | 383 kts | 254° |
| 2026-04-21 21:55 | 55.95543 | -3.87222 | 16784 ft | 388 kts | 253° |
| 2026-04-21 21:55 | 55.95201 | -3.89568 | 17244 ft | 391 kts | 253° |
| 2026-04-21 21:56 | 55.94917 | -3.91511 | 17695 ft | 390 kts | 253° |
| 2026-04-21 21:56 | 55.94215 | -3.96229 | 18645 ft | 396 kts | 251° |
| 2026-04-21 21:56 | 55.93103 | -4.00649 | 19383 ft | 398 kts | 234° |
| 2026-04-21 21:57 | 55.91256 | -4.04303 | 20222 ft | 398 kts | 216° |
| 2026-04-21 21:57 | 55.89376 | -4.06761 | 20947 ft | 401 kts | 213° |